Airfield :
LOGIN :

Register | Disclaimer

   EN    FR    IT 

 










Legend :    VFR   Marginal VFR   IFR   Intensive IFR   Very Intensive IFR
Visi :
Ceiling :
>= 8 km
>= 3000ft
5 to 8 km
1000 to 3000 ft
1500m to 5 km
500 to 1000 ft
800 to 1500m
200 to 500 ft
< 800m
< 200 ft
Symbols :   Thunderstorms  Fog  Heavy snow  Heavy precipitations  Wind > 20 kt
SIGMETs :     Misc.  Thunderstorms  Icing  Turbulence  Mountain Waves  Volcanic Ashes







- Airport Elevation : 17 ft
- IATA code : MPL
- Download approach charts


LFMT - Montpellier Méditerranée

CURRENT METAR :
  • 301400Z 17005KT 140V200 CAVOK 21/07 Q1024 NOSIG

EXPIRED METARs :
  • 301330Z 17007KT CAVOK 19/09 Q1025 NOSIG
  • 301300Z 16007KT CAVOK 19/10 Q1025 NOSIG
  • 301230Z 16006KT CAVOK 19/11 Q1025 NOSIG
  • 301200Z 15006KT CAVOK 19/12 Q1025 NOSIG
  • 301130Z VRB03KT CAVOK 19/10 Q1025 NOSIG

TAF TAF LFMT
Valid from the 30 at 09:00 until the 31 at 09:00 UTC


300800Z 3009/3109 VRB03KT CAVOK
BECMG 3010/3014 18010KT
PROB30
TEMPO 3015/3018 BKN008
BECMG 3018/3021 BKN010
BECMG 3100/3103 02010KT
ATIS : +33 4 67 13 11 70
No reported NOTAMs for that airfield.



MET'MAP, your aeronautical weather chart ! - Copyright ORBIFLY December 2007 - Disclaimer

ORBIFLY MET'MAP TEAM :

Programming & Development : Alexandra Zaïnal
Concept & Development : Baudouin d'Aumeries
Co-Development & Prog : Marc-Olivier Méhu
Technical & hardware support : Manuel Goepfert

Contact : metmap@orbifly.com




SOURCES & CREDITS :

   NOAA